createdAt,value
2023-05-12T00:01:19.865Z,100.00
2023-05-12T00:03:46.819Z,100.00
2023-05-12T00:06:13.581Z,100.00
2023-05-12T00:08:40.056Z,100.00
2023-05-12T00:11:06.739Z,100.00
2023-05-12T00:13:33.306Z,100.00
2023-05-12T00:16:00.012Z,100.00
2023-05-12T00:18:28.343Z,100.00
2023-05-12T00:20:55.596Z,100.00
2023-05-12T00:23:22.711Z,100.00
2023-05-12T00:25:49.705Z,100.00
2023-05-12T00:28:17.660Z,100.00
2023-05-12T00:30:44.270Z,100.00
2023-05-12T00:33:11.003Z,100.00
2023-05-12T00:35:37.513Z,100.00
2023-05-12T00:38:04.007Z,100.00
2023-05-12T00:40:30.531Z,100.00
2023-05-12T00:42:56.992Z,100.00
2023-05-12T00:45:23.848Z,100.00
2023-05-12T00:47:52.096Z,100.00
2023-05-12T00:50:19.062Z,100.00
2023-05-12T00:52:47.152Z,100.00
2023-05-12T00:55:21.661Z,100.00
2023-05-12T00:57:48.165Z,100.00
2023-05-12T01:00:21.881Z,100.00
2023-05-12T01:02:49.061Z,100.00
2023-05-12T01:05:17.083Z,100.00
2023-05-12T01:07:46.643Z,100.00
2023-05-12T01:10:21.285Z,100.00
2023-05-12T01:12:48.409Z,100.00
2023-05-12T01:15:15.101Z,100.00
2023-05-12T01:17:47.165Z,100.00
2023-05-12T01:20:16.588Z,100.00
2023-05-12T01:22:43.300Z,100.00
2023-05-12T01:25:14.464Z,100.00
2023-05-12T01:27:42.572Z,100.00
2023-05-12T01:30:11.116Z,100.00
2023-05-12T01:32:39.281Z,100.00
2023-05-12T01:35:06.349Z,100.00
2023-05-12T01:37:32.928Z,100.00
2023-05-12T01:39:59.436Z,100.00
2023-05-12T01:42:25.917Z,100.00
2023-05-12T01:44:52.383Z,100.00
2023-05-12T01:47:18.971Z,100.00
2023-05-12T01:49:45.718Z,100.00
2023-05-12T01:52:12.253Z,100.00
2023-05-12T01:54:38.949Z,100.00
2023-05-12T01:57:11.292Z,100.00
2023-05-12T01:59:37.818Z,100.00
2023-05-12T02:02:04.519Z,100.00
2023-05-12T02:04:31.028Z,100.00
2023-05-12T02:06:57.490Z,100.00
2023-05-12T02:09:23.972Z,100.00
2023-05-12T02:11:50.569Z,100.00
2023-05-12T02:14:17.089Z,100.00
2023-05-12T02:16:43.915Z,100.00
2023-05-12T02:19:10.753Z,100.00
2023-05-12T02:21:37.256Z,100.00
2023-05-12T02:24:03.878Z,100.00
2023-05-12T02:26:36.195Z,100.00
2023-05-12T02:29:02.680Z,100.00
2023-05-12T02:31:29.169Z,100.00
2023-05-12T02:33:55.980Z,100.00
2023-05-12T02:36:22.474Z,100.00
2023-05-12T02:38:48.988Z,100.00
2023-05-12T02:41:15.442Z,100.00
2023-05-12T02:43:41.975Z,100.00
2023-05-12T02:46:08.501Z,100.00
2023-05-12T02:48:35.134Z,100.00
2023-05-12T02:51:01.603Z,100.00
2023-05-12T02:53:34.936Z,100.00
2023-05-12T02:56:01.492Z,100.00
2023-05-12T02:58:28.027Z,100.00
2023-05-12T03:01:06.591Z,100.00
2023-05-12T03:03:38.907Z,100.00
2023-05-12T03:06:06.336Z,100.00
2023-05-12T03:08:33.259Z,100.00
2023-05-12T03:11:00.846Z,100.00
2023-05-12T03:13:27.477Z,100.00
2023-05-12T03:15:55.778Z,100.00
2023-05-12T03:18:22.621Z,100.00
2023-05-12T03:20:49.140Z,100.00
2023-05-12T03:23:16.907Z,100.00
2023-05-12T03:25:43.588Z,100.00
2023-05-12T03:28:13.127Z,100.00
2023-05-12T03:30:39.632Z,100.00
2023-05-12T03:33:06.208Z,100.00
2023-05-12T03:35:32.682Z,100.00
2023-05-12T03:37:59.223Z,100.00
2023-05-12T03:40:25.881Z,100.00
2023-05-12T03:42:52.375Z,100.00
2023-05-12T03:45:19.077Z,100.00
2023-05-12T03:47:45.738Z,100.00
2023-05-12T03:50:12.843Z,100.00
2023-05-12T03:52:41.208Z,100.00
2023-05-12T03:55:08.218Z,100.00
2023-05-12T03:57:36.526Z,100.00
2023-05-12T04:00:06.988Z,100.00
2023-05-12T04:02:34.629Z,100.00
2023-05-12T04:05:01.243Z,100.00
2023-05-12T04:07:27.824Z,100.00
2023-05-12T04:09:54.313Z,100.00
2023-05-12T04:12:20.800Z,100.00
2023-05-12T04:14:48.363Z,100.00
2023-05-12T04:17:14.906Z,100.00
2023-05-12T04:19:42.776Z,100.00
2023-05-12T04:22:09.352Z,100.00
2023-05-12T04:24:37.657Z,100.00
2023-05-12T04:27:04.468Z,100.00
2023-05-12T04:29:31.926Z,100.00
2023-05-12T04:32:00.203Z,100.00
2023-05-12T04:34:26.727Z,100.00
2023-05-12T04:36:53.476Z,100.00
2023-05-12T04:39:30.276Z,100.00
2023-05-12T04:41:56.758Z,100.00
2023-05-12T04:44:24.292Z,100.00
2023-05-12T04:46:53.385Z,100.00
2023-05-12T04:49:19.906Z,100.00
2023-05-12T04:51:46.343Z,100.00
2023-05-12T04:54:14.835Z,100.00
2023-05-12T04:56:41.314Z,100.00
2023-05-12T04:59:07.842Z,100.00
2023-05-12T05:01:34.375Z,100.00
2023-05-12T05:04:00.868Z,100.00
2023-05-12T05:06:28.214Z,100.00
2023-05-12T05:08:56.034Z,100.00
2023-05-12T05:11:23.101Z,100.00
2023-05-12T05:13:49.689Z,100.00
2023-05-12T05:16:16.294Z,100.00
2023-05-12T05:18:46.770Z,100.00
2023-05-12T05:21:16.802Z,100.00
2023-05-12T05:23:43.286Z,100.00
2023-05-12T05:26:09.886Z,100.00
2023-05-12T05:28:37.365Z,100.00
2023-05-12T05:31:03.907Z,100.00
2023-05-12T05:33:30.401Z,100.00
2023-05-12T05:35:57.083Z,100.00
2023-05-12T05:38:23.623Z,100.00
2023-05-12T05:40:53.819Z,100.00
2023-05-12T05:43:21.991Z,100.00
2023-05-12T05:45:49.884Z,100.00
2023-05-12T05:48:16.580Z,100.00
2023-05-12T05:50:43.281Z,100.00
2023-05-12T05:53:09.770Z,100.00
2023-05-12T05:55:38.247Z,100.00
2023-05-12T05:58:05.565Z,100.00
2023-05-12T06:00:32.056Z,100.00
2023-05-12T06:02:58.901Z,100.00
2023-05-12T06:05:25.452Z,100.00
2023-05-12T06:07:55.115Z,100.00
2023-05-12T06:10:21.909Z,100.00
2023-05-12T06:12:51.706Z,100.00
2023-05-12T06:15:19.449Z,100.00
2023-05-12T06:17:46.201Z,100.00
2023-05-12T06:20:13.501Z,100.00
2023-05-12T06:22:42.363Z,100.00
2023-05-12T06:25:09.755Z,100.00
2023-05-12T06:27:36.696Z,100.00
2023-05-12T06:30:04.281Z,100.00
2023-05-12T06:32:30.904Z,100.00
2023-05-12T06:34:57.447Z,100.00
2023-05-12T06:37:23.918Z,100.00
2023-05-12T06:39:50.389Z,100.00
2023-05-12T06:42:16.870Z,100.00
2023-05-12T06:44:43.486Z,100.00
2023-05-12T06:47:14.953Z,100.00
2023-05-12T06:49:41.476Z,100.00
2023-05-12T06:52:10.029Z,100.00
2023-05-12T06:54:36.524Z,100.00
2023-05-12T06:57:03.005Z,100.00
2023-05-12T06:59:29.673Z,100.00
2023-05-12T07:01:56.164Z,100.00
2023-05-12T07:04:23.438Z,100.00
2023-05-12T07:06:56.868Z,100.00
2023-05-12T07:09:23.350Z,100.00
2023-05-12T07:11:49.862Z,100.00
2023-05-12T07:14:16.490Z,100.00
2023-05-12T07:16:43.022Z,100.00
2023-05-12T07:19:09.687Z,100.00
2023-05-12T07:21:41.848Z,100.00
2023-05-12T07:24:08.393Z,100.00
2023-05-12T07:26:34.902Z,100.00
2023-05-12T07:29:02.541Z,100.00
2023-05-12T07:31:29.192Z,100.00
2023-05-12T07:33:55.780Z,100.00
2023-05-12T07:36:22.350Z,100.00
2023-05-12T07:38:48.940Z,100.00
2023-05-12T07:41:15.503Z,100.00
2023-05-12T07:43:42.007Z,100.00
2023-05-12T07:46:08.878Z,100.00
2023-05-12T07:48:39.860Z,100.00
2023-05-12T07:51:07.893Z,100.00
2023-05-12T07:53:41.532Z,100.00
2023-05-12T07:56:08.315Z,100.00
2023-05-12T07:58:34.767Z,100.00
2023-05-12T08:01:05.987Z,100.00
2023-05-12T08:03:33.553Z,100.00
2023-05-12T08:06:00.363Z,100.00
2023-05-12T08:08:34.629Z,100.00
2023-05-12T08:11:01.107Z,100.00
2023-05-12T08:13:27.672Z,100.00
2023-05-12T08:15:54.182Z,100.00
2023-05-12T08:18:21.297Z,100.00
2023-05-12T08:20:50.192Z,100.00
2023-05-12T08:23:17.580Z,100.00
2023-05-12T08:25:44.606Z,100.00
2023-05-12T08:28:12.971Z,100.00
2023-05-12T08:30:39.816Z,100.00
2023-05-12T08:33:06.513Z,100.00
2023-05-12T08:35:33.121Z,100.00
2023-05-12T08:37:59.714Z,100.00
2023-05-12T08:40:29.757Z,100.00
2023-05-12T08:43:38.980Z,100.00
2023-05-12T08:46:06.189Z,100.00
2023-05-12T08:48:35.392Z,100.00
2023-05-12T08:51:03.324Z,100.00
2023-05-12T08:53:33.530Z,100.00
2023-05-12T08:57:09.852Z,100.00
2023-05-12T08:58:49.851Z,100.00
2023-05-12T09:01:18.025Z,100.00
2023-05-12T09:03:45.395Z,100.00
2023-05-12T09:06:13.356Z,100.00
2023-05-12T09:08:41.093Z,100.00
2023-05-12T09:11:12.521Z,100.00
2023-05-12T09:13:52.799Z,100.00
2023-05-12T09:16:24.159Z,100.00
2023-05-12T09:18:53.047Z,100.00
2023-05-12T09:21:20.108Z,100.00
2023-05-12T09:24:06.950Z,100.00
2023-05-12T09:26:49.336Z,100.00
2023-05-12T09:29:24.308Z,100.00
2023-05-12T09:31:58.685Z,100.00
2023-05-12T09:34:30.996Z,100.00
2023-05-12T09:37:00.028Z,100.00
2023-05-12T09:39:27.066Z,100.00
2023-05-12T09:41:53.937Z,100.00
2023-05-12T09:44:21.492Z,100.00
2023-05-12T09:46:49.056Z,100.00
2023-05-12T09:49:25.982Z,100.00
2023-05-12T09:51:59.900Z,100.00
2023-05-12T09:54:31.022Z,100.00
2023-05-12T09:57:00.406Z,100.00
2023-05-12T09:59:32.772Z,100.00
2023-05-12T10:02:01.574Z,100.00
2023-05-12T10:04:32.220Z,100.00
2023-05-12T10:06:59.531Z,100.00
2023-05-12T10:09:30.933Z,100.00
2023-05-12T10:11:58.239Z,100.00
2023-05-12T10:14:25.936Z,100.00
2023-05-12T10:16:53.974Z,100.00
2023-05-12T10:19:21.444Z,100.00
2023-05-12T10:21:48.840Z,100.00
2023-05-12T10:24:16.874Z,100.00
2023-05-12T10:26:44.772Z,96.78
2023-05-12T10:29:12.766Z,98.26
2023-05-12T10:31:40.075Z,95.61
2023-05-12T10:34:07.080Z,91.20
2023-05-12T10:36:50.929Z,84.88
2023-05-12T10:39:18.332Z,92.34
2023-05-12T10:41:44.813Z,86.84
2023-05-12T10:44:11.538Z,86.40
2023-05-12T10:46:38.565Z,83.86
2023-05-12T10:49:13.044Z,84.87
2023-05-12T10:51:42.498Z,89.13
2023-05-12T10:54:10.943Z,88.22
2023-05-12T10:56:38.380Z,84.28
2023-05-12T10:59:12.044Z,82.99
2023-05-12T11:01:42.963Z,82.32
2023-05-12T11:04:15.179Z,82.04
2023-05-12T11:06:44.969Z,84.58
2023-05-12T11:09:13.386Z,85.37
2023-05-12T11:11:40.482Z,84.59
2023-05-12T11:14:08.273Z,84.83
2023-05-12T11:16:41.125Z,84.14
2023-05-12T11:19:07.731Z,84.14
2023-05-12T11:21:34.651Z,84.36
2023-05-12T11:24:02.223Z,81.79
2023-05-12T11:26:30.050Z,82.14
2023-05-12T11:28:59.849Z,85.39
2023-05-12T11:31:26.813Z,81.98
2023-05-12T11:34:12.453Z,80.86
2023-05-12T11:36:42.401Z,78.30
2023-05-12T11:39:25.685Z,76.53
2023-05-12T11:41:59.354Z,74.54
2023-05-12T11:44:32.516Z,73.43
2023-05-12T11:47:11.715Z,72.64
2023-05-12T11:49:52.387Z,74.81
2023-05-12T11:52:20.486Z,71.43
2023-05-12T11:54:51.859Z,73.23
2023-05-12T11:57:35.155Z,73.65
2023-05-12T12:00:09.793Z,67.50
2023-05-12T12:02:43.280Z,67.57
2023-05-12T12:05:18.281Z,65.13
2023-05-12T12:07:45.264Z,65.02
2023-05-12T12:10:18.848Z,67.04
2023-05-12T12:12:46.031Z,66.73
2023-05-12T12:15:13.230Z,67.06
2023-05-12T12:17:40.895Z,67.36
2023-05-12T12:20:09.235Z,66.68
2023-05-12T12:22:36.087Z,67.07
2023-05-12T12:25:03.099Z,65.78
2023-05-12T12:27:29.685Z,67.89
2023-05-12T12:29:56.490Z,63.11
2023-05-12T12:32:22.988Z,63.52
2023-05-12T12:34:49.605Z,62.11
2023-05-12T12:37:17.303Z,62.81
2023-05-12T12:39:43.854Z,59.91
2023-05-12T12:42:10.361Z,63.94
2023-05-12T12:44:36.838Z,60.22
2023-05-12T12:47:03.718Z,60.02
2023-05-12T12:49:30.231Z,62.29
2023-05-12T12:51:56.734Z,62.20
2023-05-12T12:54:25.166Z,62.62
2023-05-12T12:56:51.701Z,64.06
2023-05-12T12:59:18.299Z,65.64
2023-05-12T13:01:44.843Z,65.70
2023-05-12T13:04:11.353Z,65.27
2023-05-12T13:06:37.805Z,64.34
2023-05-12T13:09:04.444Z,62.65
2023-05-12T13:11:31.016Z,62.26
2023-05-12T13:13:57.481Z,64.13
2023-05-12T13:16:23.958Z,63.00
2023-05-12T13:18:50.811Z,63.08
2023-05-12T13:21:18.883Z,61.34
2023-05-12T13:23:45.376Z,62.38
2023-05-12T13:26:11.934Z,64.16
2023-05-12T13:28:38.404Z,65.79
2023-05-12T13:31:06.179Z,63.46
2023-05-12T13:33:32.798Z,61.65
2023-05-12T13:35:59.380Z,62.19
2023-05-12T13:38:26.437Z,63.00
2023-05-12T13:40:54.446Z,64.77
2023-05-12T13:43:21.525Z,64.40
2023-05-12T13:45:48.126Z,63.78
2023-05-12T13:48:14.631Z,63.20
2023-05-12T13:50:41.468Z,62.77
2023-05-12T13:53:07.924Z,61.81
2023-05-12T13:55:40.653Z,62.23
2023-05-12T13:58:07.628Z,61.26
2023-05-12T14:00:34.150Z,60.05
2023-05-12T14:03:00.709Z,61.50
2023-05-12T14:05:27.500Z,60.61
2023-05-12T14:07:54.078Z,62.04
2023-05-12T14:10:20.598Z,60.94
2023-05-12T14:12:47.986Z,61.08
2023-05-12T14:15:29.644Z,61.71
2023-05-12T14:18:01.012Z,59.74
2023-05-12T14:20:27.541Z,60.27
2023-05-12T14:22:55.698Z,59.50
2023-05-12T14:25:23.980Z,60.85
2023-05-12T14:27:50.858Z,58.61
2023-05-12T14:30:17.943Z,55.63
2023-05-12T14:32:44.523Z,55.36
2023-05-12T14:35:11.001Z,56.60
2023-05-12T14:37:37.542Z,56.41
2023-05-12T14:40:05.430Z,54.54
2023-05-12T14:42:32.388Z,55.75
2023-05-12T14:44:59.346Z,56.77
2023-05-12T14:47:26.002Z,57.53
2023-05-12T14:49:52.556Z,56.82
2023-05-12T14:52:19.066Z,59.32
2023-05-12T14:54:45.629Z,57.23
2023-05-12T14:57:13.601Z,58.24
2023-05-12T14:59:41.273Z,58.64
2023-05-12T15:02:07.962Z,58.23
2023-05-12T15:04:34.569Z,58.69
2023-05-12T15:07:01.042Z,57.46
2023-05-12T15:09:27.575Z,56.62
2023-05-12T15:11:55.123Z,59.36
2023-05-12T15:14:21.896Z,56.91
2023-05-12T15:16:48.580Z,56.20
2023-05-12T15:19:17.517Z,56.98
2023-05-12T15:21:44.159Z,58.51
2023-05-12T15:24:10.629Z,58.14
2023-05-12T15:26:39.494Z,57.91
2023-05-12T15:29:07.294Z,56.86
2023-05-12T15:31:33.893Z,57.88
2023-05-12T15:34:00.590Z,58.20
2023-05-12T15:36:27.087Z,58.06
2023-05-12T15:38:56.632Z,59.54
2023-05-12T15:41:23.261Z,59.55
2023-05-12T15:43:49.725Z,58.55
2023-05-12T15:46:16.440Z,59.12
2023-05-12T15:48:42.934Z,59.82
2023-05-12T15:51:09.431Z,59.24
2023-05-12T15:53:36.261Z,59.78
2023-05-12T15:56:03.969Z,59.93
2023-05-12T15:58:30.748Z,60.33
2023-05-12T16:00:57.324Z,60.63
2023-05-12T16:03:24.026Z,61.09
2023-05-12T16:05:50.844Z,61.51
2023-05-12T16:08:17.732Z,60.26
2023-05-12T16:10:44.928Z,59.13
2023-05-12T16:13:11.581Z,58.70
2023-05-12T16:15:38.081Z,59.77
2023-05-12T16:18:09.102Z,60.67
2023-05-12T16:20:37.566Z,61.50
2023-05-12T16:23:04.022Z,60.95
2023-05-12T16:25:30.566Z,61.38
2023-05-12T16:27:57.136Z,61.99
2023-05-12T16:30:25.052Z,60.54
2023-05-12T16:32:51.586Z,59.52
2023-05-12T16:35:18.262Z,59.54
2023-05-12T16:37:44.906Z,59.79
2023-05-12T16:40:12.165Z,60.11
2023-05-12T16:42:39.689Z,59.57
2023-05-12T16:45:06.823Z,58.63
2023-05-12T16:47:33.375Z,59.16
2023-05-12T16:49:59.975Z,58.45
2023-05-12T16:52:26.891Z,58.29
2023-05-12T16:54:55.893Z,58.74
2023-05-12T16:57:22.403Z,59.23
2023-05-12T16:59:48.869Z,59.63
2023-05-12T17:02:15.889Z,59.54
2023-05-12T17:04:42.605Z,60.69
2023-05-12T17:07:09.685Z,59.62
2023-05-12T17:09:36.652Z,60.47
2023-05-12T17:12:04.551Z,60.61
2023-05-12T17:14:31.311Z,59.61
2023-05-12T17:16:57.865Z,60.76
2023-05-12T17:19:24.451Z,59.87
2023-05-12T17:21:50.913Z,60.77
2023-05-12T17:24:17.708Z,60.97
2023-05-12T17:26:44.862Z,59.87
2023-05-12T17:29:11.306Z,60.22
2023-05-12T17:31:38.657Z,60.94
2023-05-12T17:34:05.566Z,61.03
2023-05-12T17:36:33.012Z,61.18
2023-05-12T17:39:00.057Z,61.44
2023-05-12T17:41:28.919Z,61.25
2023-05-12T17:43:55.818Z,62.78
2023-05-12T17:46:23.010Z,62.15
2023-05-12T17:48:49.683Z,63.23
2023-05-12T17:51:16.301Z,62.79
2023-05-12T17:53:44.041Z,63.39
2023-05-12T17:56:11.535Z,64.20
2023-05-12T17:58:38.513Z,64.79
2023-05-12T18:01:05.094Z,65.96
2023-05-12T18:03:31.740Z,67.67
2023-05-12T18:05:58.243Z,68.14
2023-05-12T18:08:24.702Z,70.73
2023-05-12T18:10:51.217Z,69.53
2023-05-12T18:13:17.763Z,68.36
2023-05-12T18:15:44.273Z,73.86
2023-05-12T18:18:10.914Z,69.12
2023-05-12T18:20:37.759Z,72.88
2023-05-12T18:23:04.434Z,72.58
2023-05-12T18:25:31.232Z,67.78
2023-05-12T18:27:57.746Z,68.09
2023-05-12T18:30:24.192Z,70.05
2023-05-12T18:32:51.027Z,72.41
2023-05-12T18:35:18.041Z,71.83
2023-05-12T18:37:45.068Z,71.45
2023-05-12T18:40:12.183Z,71.64
2023-05-12T18:42:38.999Z,71.82
2023-05-12T18:45:06.167Z,73.42
2023-05-12T18:47:33.484Z,72.64
2023-05-12T18:50:00.095Z,70.87
2023-05-12T18:52:26.609Z,70.10
2023-05-12T18:54:54.045Z,74.09
2023-05-12T18:57:20.862Z,72.88
2023-05-12T18:59:47.356Z,71.87
2023-05-12T19:02:13.817Z,71.98
2023-05-12T19:04:40.501Z,72.34
2023-05-12T19:07:09.824Z,70.36
2023-05-12T19:09:37.234Z,72.34
2023-05-12T19:12:06.127Z,73.78
2023-05-12T19:14:32.869Z,73.53
2023-05-12T19:16:59.385Z,73.71
2023-05-12T19:19:25.885Z,75.76
2023-05-12T19:21:53.155Z,75.55
2023-05-12T19:24:19.645Z,75.67
2023-05-12T19:26:46.379Z,76.70
2023-05-12T19:29:12.991Z,76.30
2023-05-12T19:31:39.590Z,75.68
2023-05-12T19:34:07.080Z,76.20
2023-05-12T19:36:33.804Z,76.97
2023-05-12T19:39:00.497Z,80.97
2023-05-12T19:41:30.045Z,77.11
2023-05-12T19:43:56.626Z,77.93
2023-05-12T19:46:23.392Z,78.23
2023-05-12T19:48:51.005Z,77.00
2023-05-12T19:51:17.558Z,77.23
2023-05-12T19:53:44.474Z,79.57
2023-05-12T19:56:11.177Z,79.59
2023-05-12T19:58:38.367Z,79.93
2023-05-12T20:01:05.068Z,80.43
2023-05-12T20:03:32.939Z,79.09
2023-05-12T20:05:59.486Z,79.08
2023-05-12T20:08:25.968Z,79.41
2023-05-12T20:10:52.429Z,79.09
2023-05-12T20:13:18.892Z,79.46
2023-05-12T20:15:45.363Z,79.69
2023-05-12T20:18:14.607Z,80.54
2023-05-12T20:20:42.237Z,81.82
2023-05-12T20:23:08.968Z,81.90
2023-05-12T20:25:36.200Z,83.19
2023-05-12T20:28:03.008Z,81.82
2023-05-12T20:30:29.984Z,82.77
2023-05-12T20:32:56.670Z,83.12
2023-05-12T20:35:23.442Z,81.77
2023-05-12T20:37:50.611Z,84.57
2023-05-12T20:40:17.230Z,86.17
2023-05-12T20:42:49.011Z,82.32
2023-05-12T20:45:16.319Z,85.38
2023-05-12T20:47:42.917Z,85.01
2023-05-12T20:50:09.990Z,85.13
2023-05-12T20:52:40.097Z,84.53
2023-05-12T20:55:07.249Z,86.85
2023-05-12T20:57:34.060Z,87.44
2023-05-12T21:00:00.675Z,87.59
2023-05-12T21:02:28.616Z,91.18
2023-05-12T21:04:55.790Z,89.17
2023-05-12T21:07:22.384Z,90.00
2023-05-12T21:09:49.071Z,89.79
2023-05-12T21:12:15.498Z,89.86
2023-05-12T21:14:44.053Z,90.28
2023-05-12T21:17:12.105Z,90.04
2023-05-12T21:19:40.033Z,90.92
2023-05-12T21:22:07.922Z,91.80
2023-05-12T21:24:36.430Z,90.67
2023-05-12T21:27:04.214Z,91.23
2023-05-12T21:29:31.546Z,92.06
2023-05-12T21:31:58.150Z,93.14
2023-05-12T21:34:24.862Z,94.23
2023-05-12T21:36:51.705Z,94.45
2023-05-12T21:39:18.182Z,95.38
2023-05-12T21:41:44.670Z,94.86
2023-05-12T21:44:12.201Z,96.98
2023-05-12T21:46:38.860Z,97.63
2023-05-12T21:49:05.429Z,98.37
2023-05-12T21:51:34.536Z,97.23
2023-05-12T21:54:02.009Z,99.70
2023-05-12T21:56:28.588Z,98.43
2023-05-12T21:58:55.648Z,98.31
2023-05-12T22:01:22.165Z,100.00
2023-05-12T22:03:49.387Z,99.70
2023-05-12T22:06:15.967Z,99.87
2023-05-12T22:08:43.615Z,99.06
2023-05-12T22:11:10.774Z,100.00
2023-05-12T22:13:37.520Z,100.00
2023-05-12T22:16:04.320Z,100.00
2023-05-12T22:18:30.960Z,100.00
2023-05-12T22:20:57.518Z,100.00
2023-05-12T22:23:23.970Z,100.00
2023-05-12T22:25:50.652Z,100.00
2023-05-12T22:28:18.225Z,100.00
2023-05-12T22:30:44.655Z,100.00
2023-05-12T22:33:11.302Z,100.00
2023-05-12T22:35:37.938Z,100.00
2023-05-12T22:38:04.435Z,100.00
2023-05-12T22:40:31.339Z,100.00
2023-05-12T22:42:57.886Z,100.00
2023-05-12T22:45:25.444Z,100.00
2023-05-12T22:47:52.299Z,100.00
2023-05-12T22:50:19.256Z,100.00
2023-05-12T22:52:46.071Z,100.00
2023-05-12T22:55:12.645Z,100.00
2023-05-12T22:57:40.860Z,100.00
2023-05-12T23:00:07.881Z,100.00
2023-05-12T23:02:34.401Z,100.00
2023-05-12T23:05:01.148Z,100.00
2023-05-12T23:07:27.840Z,100.00
2023-05-12T23:09:54.285Z,100.00
2023-05-12T23:12:20.769Z,100.00
2023-05-12T23:14:47.283Z,100.00
2023-05-12T23:17:14.833Z,100.00
2023-05-12T23:19:41.395Z,100.00
2023-05-12T23:22:07.855Z,100.00
2023-05-12T23:24:36.054Z,100.00
2023-05-12T23:27:02.587Z,100.00
2023-05-12T23:29:29.076Z,100.00
2023-05-12T23:31:58.713Z,100.00
2023-05-12T23:34:25.828Z,100.00
2023-05-12T23:36:52.452Z,100.00
2023-05-12T23:39:18.995Z,100.00
2023-05-12T23:41:45.670Z,100.00
2023-05-12T23:44:12.929Z,100.00
2023-05-12T23:46:39.552Z,100.00
2023-05-12T23:49:06.426Z,100.00
2023-05-12T23:51:33.265Z,100.00
2023-05-12T23:54:00.062Z,100.00
2023-05-12T23:56:26.607Z,100.00
2023-05-12T23:58:53.137Z,100.00
